SDM690 ULLI-EFHK
Flight info
| Callsign | SDM690 |
|---|---|
| Flight time | 0h 38m |
| Altitude | 26000 |
| Route | UTETA M60 ATLUM T561 LEDUN/N0393F260 DCT ROPAM |
| Aircraft | A320/M-SDE3FGHIRWY/LB1 |
Departure
| Time | 2026-04-23 18:01 |
|---|---|
| Airport | Pulkovo Airport (ULLI) |
Arrival
| Time | 2026-04-23 18:39 |
|---|---|
| Airport | Helsinki Vantaa Airport (EFHK) |
| Time | Latitude | Longitude | Altitude | Speed | Heading |
|---|---|---|---|---|---|
| 2026-04-23 16:59 | 59.79943 | 30.26784 | 91 ft | 0 kts | 94° |
| 2026-04-23 17:49 | 59.79944 | 30.26768 | 84 ft | 2 kts | 94° |
| 2026-04-23 17:49 | 59.79945 | 30.26735 | 92 ft | 2 kts | 94° |
| 2026-04-23 17:50 | 59.79946 | 30.26703 | 86 ft | 2 kts | 92° |
| 2026-04-23 17:50 | 59.79949 | 30.26638 | 87 ft | 2 kts | 77° |
| 2026-04-23 17:50 | 59.79940 | 30.26611 | 89 ft | 2 kts | 25° |
| 2026-04-23 17:51 | 59.79924 | 30.26600 | 89 ft | 2 kts | 13° |
| 2026-04-23 17:51 | 59.79915 | 30.26595 | 88 ft | 1 kts | 14° |
| 2026-04-23 17:53 | 59.79919 | 30.26598 | 84 ft | 3 kts | 14° |
| 2026-04-23 17:53 | 59.79963 | 30.26623 | 87 ft | 9 kts | 17° |
| 2026-04-23 17:54 | 59.80030 | 30.26663 | 83 ft | 11 kts | 17° |
| 2026-04-23 17:54 | 59.80112 | 30.26711 | 83 ft | 14 kts | 17° |
| 2026-04-23 17:54 | 59.80320 | 30.26834 | 87 ft | 13 kts | 16° |
| 2026-04-23 17:55 | 59.80375 | 30.27003 | 88 ft | 8 kts | 105° |
| 2026-04-23 17:55 | 59.80352 | 30.27155 | 84 ft | 15 kts | 106° |
| 2026-04-23 17:55 | 59.80320 | 30.27368 | 84 ft | 16 kts | 107° |
| 2026-04-23 17:56 | 59.80287 | 30.27587 | 87 ft | 17 kts | 106° |
| 2026-04-23 17:56 | 59.80217 | 30.28055 | 82 ft | 19 kts | 107° |
| 2026-04-23 17:56 | 59.80177 | 30.28323 | 82 ft | 21 kts | 106° |
| 2026-04-23 17:57 | 59.80133 | 30.28624 | 81 ft | 24 kts | 106° |
| 2026-04-23 17:57 | 59.80083 | 30.28957 | 77 ft | 26 kts | 107° |
| 2026-04-23 17:57 | 59.79980 | 30.29635 | 74 ft | 20 kts | 106° |
| 2026-04-23 17:58 | 59.79949 | 30.29851 | 77 ft | 13 kts | 106° |
| 2026-04-23 17:58 | 59.79935 | 30.29993 | 78 ft | 9 kts | 82° |
| 2026-04-23 17:58 | 59.79964 | 30.30078 | 70 ft | 5 kts | 46° |
| 2026-04-23 17:58 | 59.79981 | 30.30114 | 78 ft | 3 kts | 47° |
| 2026-04-23 17:59 | 59.79986 | 30.30126 | 78 ft | 0 kts | 48° |
| 2026-04-23 17:59 | 59.79998 | 30.30152 | 75 ft | 7 kts | 48° |
| 2026-04-23 17:59 | 59.80038 | 30.30239 | 68 ft | 9 kts | 45° |
| 2026-04-23 18:00 | 59.80089 | 30.30301 | 78 ft | 8 kts | 17° |
| 2026-04-23 18:00 | 59.80114 | 30.30273 | 78 ft | 3 kts | 291° |
| 2026-04-23 18:00 | 59.80120 | 30.30236 | 70 ft | 3 kts | 288° |
| 2026-04-23 18:00 | 59.80161 | 30.29964 | 76 ft | 55 kts | 287° |
| 2026-04-23 18:01 | 59.80341 | 30.28769 | 80 ft | 122 kts | 286° |
| 2026-04-23 18:01 | 59.80629 | 30.26840 | 261 ft | 155 kts | 287° |
| 2026-04-23 18:01 | 59.80925 | 30.24818 | 1095 ft | 152 kts | 289° |
| 2026-04-23 18:01 | 59.81221 | 30.22805 | 1908 ft | 152 kts | 291° |
| 2026-04-23 18:02 | 59.81418 | 30.21476 | 2382 ft | 152 kts | 291° |
| 2026-04-23 18:02 | 59.81820 | 30.18780 | 3320 ft | 154 kts | 291° |
| 2026-04-23 18:02 | 59.82146 | 30.16625 | 3750 ft | 174 kts | 291° |
| 2026-04-23 18:02 | 59.82517 | 30.14165 | 4130 ft | 198 kts | 290° |
| 2026-04-23 18:03 | 59.82935 | 30.11373 | 4536 ft | 223 kts | 290° |
| 2026-04-23 18:03 | 59.83400 | 30.08253 | 5065 ft | 248 kts | 289° |
| 2026-04-23 18:03 | 59.83909 | 30.04805 | 5624 ft | 271 kts | 289° |
| 2026-04-23 18:03 | 59.84438 | 30.01115 | 6476 ft | 282 kts | 286° |
| 2026-04-23 18:04 | 59.84663 | 29.97180 | 7414 ft | 292 kts | 273° |
| 2026-04-23 18:04 | 59.84394 | 29.93111 | 8374 ft | 303 kts | 261° |
| 2026-04-23 18:04 | 59.83905 | 29.89000 | 9334 ft | 308 kts | 262° |
| 2026-04-23 18:04 | 59.83413 | 29.84807 | 10223 ft | 314 kts | 263° |
| 2026-04-23 18:05 | 59.82912 | 29.80485 | 10875 ft | 328 kts | 263° |
| 2026-04-23 18:05 | 59.82393 | 29.76006 | 11651 ft | 336 kts | 263° |
| 2026-04-23 18:05 | 59.81860 | 29.71449 | 12497 ft | 342 kts | 263° |
| 2026-04-23 18:05 | 59.81314 | 29.66813 | 13354 ft | 347 kts | 264° |
| 2026-04-23 18:06 | 59.80757 | 29.62111 | 14138 ft | 352 kts | 264° |
| 2026-04-23 18:06 | 59.80193 | 29.57355 | 14911 ft | 356 kts | 264° |
| 2026-04-23 18:06 | 59.79627 | 29.52547 | 15676 ft | 359 kts | 265° |
| 2026-04-23 18:06 | 59.79054 | 29.47686 | 16434 ft | 364 kts | 265° |
| 2026-04-23 18:07 | 59.78468 | 29.42774 | 17183 ft | 368 kts | 265° |
| 2026-04-23 18:07 | 59.77869 | 29.37809 | 17936 ft | 372 kts | 265° |
| 2026-04-23 18:07 | 59.77261 | 29.32795 | 18595 ft | 376 kts | 266° |
| 2026-04-23 18:07 | 59.76655 | 29.27793 | 19236 ft | 379 kts | 266° |
| 2026-04-23 18:08 | 59.76237 | 29.24344 | 19690 ft | 382 kts | 266° |
| 2026-04-23 18:08 | 59.75407 | 29.17523 | 20566 ft | 386 kts | 267° |
| 2026-04-23 18:08 | 59.74772 | 29.12321 | 21238 ft | 390 kts | 267° |
| 2026-04-23 18:08 | 59.74133 | 29.07068 | 21904 ft | 394 kts | 268° |
| 2026-04-23 18:09 | 59.73647 | 29.01774 | 22570 ft | 386 kts | 276° |
| 2026-04-23 18:09 | 59.73613 | 28.96525 | 23231 ft | 377 kts | 285° |
| 2026-04-23 18:09 | 59.73764 | 28.91243 | 23829 ft | 380 kts | 285° |
| 2026-04-23 18:09 | 59.73912 | 28.85997 | 24385 ft | 383 kts | 285° |
| 2026-04-23 18:10 | 59.74056 | 28.80714 | 24939 ft | 385 kts | 286° |
| 2026-04-23 18:10 | 59.74196 | 28.75399 | 25451 ft | 387 kts | 286° |
| 2026-04-23 18:10 | 59.74330 | 28.70061 | 25701 ft | 388 kts | 286° |
| 2026-04-23 18:10 | 59.74462 | 28.64715 | 25813 ft | 387 kts | 286° |
| 2026-04-23 18:11 | 59.74578 | 28.59481 | 25841 ft | 377 kts | 286° |
| 2026-04-23 18:11 | 59.74698 | 28.54283 | 25839 ft | 378 kts | 286° |
| 2026-04-23 18:11 | 59.74826 | 28.49082 | 25839 ft | 378 kts | 286° |
| 2026-04-23 18:11 | 59.74953 | 28.43950 | 25842 ft | 378 kts | 286° |
| 2026-04-23 18:12 | 59.75081 | 28.38748 | 25841 ft | 378 kts | 286° |
| 2026-04-23 18:12 | 59.75204 | 28.33545 | 25842 ft | 378 kts | 286° |
| 2026-04-23 18:12 | 59.75321 | 28.28344 | 25847 ft | 378 kts | 286° |
| 2026-04-23 18:12 | 59.75435 | 28.23138 | 25846 ft | 378 kts | 286° |
| 2026-04-23 18:13 | 59.75546 | 28.17927 | 25843 ft | 378 kts | 286° |
| 2026-04-23 18:13 | 59.75653 | 28.12720 | 25839 ft | 378 kts | 286° |
| 2026-04-23 18:13 | 59.75757 | 28.07508 | 25840 ft | 378 kts | 286° |
| 2026-04-23 18:13 | 59.75860 | 28.02303 | 25836 ft | 378 kts | 285° |
| 2026-04-23 18:14 | 59.75928 | 27.98853 | 25836 ft | 378 kts | 286° |
| 2026-04-23 18:14 | 59.76067 | 27.91890 | 25832 ft | 378 kts | 286° |
| 2026-04-23 18:14 | 59.76170 | 27.86685 | 25819 ft | 377 kts | 285° |
| 2026-04-23 18:14 | 59.76265 | 27.81518 | 25672 ft | 373 kts | 285° |
| 2026-04-23 18:15 | 59.76355 | 27.76393 | 25424 ft | 371 kts | 285° |
| 2026-04-23 18:15 | 59.76445 | 27.71295 | 25113 ft | 369 kts | 285° |
| 2026-04-23 18:15 | 59.76661 | 27.66309 | 24750 ft | 355 kts | 293° |
| 2026-04-23 18:15 | 59.77251 | 27.61649 | 24392 ft | 345 kts | 298° |
| 2026-04-23 18:16 | 59.77902 | 27.57072 | 24024 ft | 344 kts | 297° |
| 2026-04-23 18:16 | 59.78551 | 27.52508 | 23668 ft | 343 kts | 297° |
| 2026-04-23 18:16 | 59.78986 | 27.49437 | 23426 ft | 342 kts | 297° |
| 2026-04-23 18:17 | 59.80253 | 27.40365 | 22585 ft | 339 kts | 296° |
| 2026-04-23 18:17 | 59.80874 | 27.35860 | 22177 ft | 338 kts | 296° |
| 2026-04-23 18:17 | 59.81486 | 27.31432 | 21779 ft | 336 kts | 296° |
| 2026-04-23 18:17 | 59.82105 | 27.26968 | 21388 ft | 334 kts | 296° |
| 2026-04-23 18:18 | 59.82720 | 27.22525 | 20984 ft | 333 kts | 296° |
| 2026-04-23 18:18 | 59.83329 | 27.18096 | 20594 ft | 331 kts | 296° |
| 2026-04-23 18:18 | 59.83934 | 27.13679 | 20210 ft | 330 kts | 296° |
| 2026-04-23 18:18 | 59.84535 | 27.09279 | 19814 ft | 329 kts | 296° |
| 2026-04-23 18:19 | 59.85132 | 27.04894 | 19452 ft | 328 kts | 296° |
| 2026-04-23 18:19 | 59.85725 | 27.00525 | 19084 ft | 326 kts | 296° |
| 2026-04-23 18:19 | 59.86315 | 26.96175 | 18721 ft | 325 kts | 296° |
| 2026-04-23 18:19 | 59.86901 | 26.91836 | 18362 ft | 324 kts | 296° |
| 2026-04-23 18:20 | 59.87484 | 26.87511 | 17986 ft | 323 kts | 295° |
| 2026-04-23 18:20 | 59.88062 | 26.83204 | 17574 ft | 321 kts | 295° |
| 2026-04-23 18:20 | 59.88634 | 26.78917 | 17165 ft | 320 kts | 295° |
| 2026-04-23 18:20 | 59.89201 | 26.74650 | 16759 ft | 318 kts | 295° |
| 2026-04-23 18:21 | 59.89766 | 26.70403 | 16364 ft | 316 kts | 295° |
| 2026-04-23 18:21 | 59.90328 | 26.66175 | 15980 ft | 315 kts | 294° |
| 2026-04-23 18:21 | 59.90886 | 26.61969 | 15584 ft | 313 kts | 294° |
| 2026-04-23 18:21 | 59.91440 | 26.57779 | 15200 ft | 312 kts | 294° |
| 2026-04-23 18:22 | 59.91990 | 26.53609 | 14825 ft | 310 kts | 294° |
| 2026-04-23 18:22 | 59.92538 | 26.49454 | 14452 ft | 309 kts | 293° |
| 2026-04-23 18:22 | 59.93081 | 26.45317 | 14081 ft | 308 kts | 293° |
| 2026-04-23 18:22 | 59.93620 | 26.41195 | 13720 ft | 307 kts | 292° |
| 2026-04-23 18:23 | 59.94156 | 26.37089 | 13320 ft | 305 kts | 292° |
| 2026-04-23 18:23 | 59.95214 | 26.28943 | 12699 ft | 302 kts | 292° |
| 2026-04-23 18:24 | 59.96232 | 26.21012 | 12174 ft | 300 kts | 292° |
| 2026-04-23 18:24 | 59.96750 | 26.16981 | 11938 ft | 299 kts | 292° |
| 2026-04-23 18:24 | 59.97278 | 26.12972 | 11859 ft | 297 kts | 295° |
| 2026-04-23 18:25 | 59.99158 | 26.05863 | 11835 ft | 289 kts | 308° |
| 2026-04-23 18:25 | 60.00206 | 26.02446 | 11672 ft | 290 kts | 303° |
| 2026-04-23 18:25 | 60.00939 | 25.98638 | 11524 ft | 294 kts | 296° |
| 2026-04-23 18:25 | 60.01609 | 25.94773 | 11393 ft | 294 kts | 296° |
| 2026-04-23 18:26 | 60.02272 | 25.90904 | 11263 ft | 294 kts | 295° |
| 2026-04-23 18:26 | 60.02930 | 25.87037 | 11134 ft | 294 kts | 295° |
| 2026-04-23 18:26 | 60.03585 | 25.83169 | 11005 ft | 293 kts | 295° |
| 2026-04-23 18:26 | 60.04239 | 25.79303 | 10873 ft | 293 kts | 295° |
| 2026-04-23 18:27 | 60.04892 | 25.75443 | 10747 ft | 293 kts | 295° |
| 2026-04-23 18:27 | 60.05546 | 25.71594 | 10615 ft | 292 kts | 295° |
| 2026-04-23 18:27 | 60.06199 | 25.67742 | 10399 ft | 292 kts | 295° |
| 2026-04-23 18:27 | 60.06845 | 25.63903 | 10150 ft | 291 kts | 295° |
| 2026-04-23 18:28 | 60.07485 | 25.60083 | 9900 ft | 286 kts | 294° |
| 2026-04-23 18:28 | 60.08106 | 25.56356 | 9640 ft | 278 kts | 294° |
| 2026-04-23 18:28 | 60.08709 | 25.52730 | 9367 ft | 271 kts | 294° |
| 2026-04-23 18:28 | 60.09301 | 25.49173 | 9098 ft | 268 kts | 294° |
| 2026-04-23 18:29 | 60.09889 | 25.45637 | 8819 ft | 267 kts | 294° |
| 2026-04-23 18:29 | 60.10477 | 25.42108 | 8550 ft | 267 kts | 294° |
| 2026-04-23 18:29 | 60.11065 | 25.38584 | 8282 ft | 266 kts | 293° |
| 2026-04-23 18:29 | 60.11651 | 25.35061 | 8016 ft | 266 kts | 293° |
| 2026-04-23 18:30 | 60.12233 | 25.31548 | 7752 ft | 265 kts | 292° |
| 2026-04-23 18:30 | 60.12813 | 25.28035 | 7495 ft | 265 kts | 292° |
| 2026-04-23 18:30 | 60.13392 | 25.24525 | 7240 ft | 265 kts | 292° |
| 2026-04-23 18:30 | 60.13960 | 25.21069 | 6982 ft | 264 kts | 291° |
| 2026-04-23 18:31 | 60.14533 | 25.17564 | 6732 ft | 264 kts | 291° |
| 2026-04-23 18:31 | 60.15105 | 25.14065 | 6393 ft | 264 kts | 291° |
| 2026-04-23 18:31 | 60.15675 | 25.10574 | 6020 ft | 262 kts | 291° |
| 2026-04-23 18:31 | 60.16238 | 25.07108 | 5655 ft | 260 kts | 291° |
| 2026-04-23 18:32 | 60.16797 | 25.03672 | 5283 ft | 258 kts | 291° |
| 2026-04-23 18:32 | 60.17360 | 25.00215 | 4836 ft | 256 kts | 291° |
| 2026-04-23 18:32 | 60.17905 | 24.96830 | 4406 ft | 254 kts | 289° |
| 2026-04-23 18:32 | 60.18124 | 24.93321 | 3985 ft | 256 kts | 270° |
| 2026-04-23 18:33 | 60.17724 | 24.89826 | 3537 ft | 260 kts | 250° |
| 2026-04-23 18:33 | 60.16728 | 24.86788 | 3180 ft | 259 kts | 230° |
| 2026-04-23 18:33 | 60.15527 | 24.84215 | 3046 ft | 246 kts | 233° |
| 2026-04-23 18:33 | 60.14794 | 24.81316 | 2903 ft | 224 kts | 265° |
| 2026-04-23 18:34 | 60.14906 | 24.78297 | 2953 ft | 218 kts | 293° |
| 2026-04-23 18:34 | 60.15717 | 24.75868 | 2803 ft | 205 kts | 320° |
| 2026-04-23 18:34 | 60.16761 | 24.73985 | 2665 ft | 199 kts | 320° |
| 2026-04-23 18:34 | 60.17779 | 24.72124 | 2561 ft | 196 kts | 320° |
| 2026-04-23 18:35 | 60.18764 | 24.70313 | 2449 ft | 193 kts | 320° |
| 2026-04-23 18:35 | 60.19807 | 24.68643 | 2356 ft | 188 kts | 338° |
| 2026-04-23 18:35 | 60.21055 | 24.68520 | 2305 ft | 184 kts | 20° |
| 2026-04-23 18:35 | 60.22026 | 24.70181 | 2328 ft | 187 kts | 46° |
| 2026-04-23 18:36 | 60.22907 | 24.72106 | 2311 ft | 187 kts | 43° |
| 2026-04-23 18:36 | 60.23796 | 24.74006 | 2282 ft | 184 kts | 44° |
| 2026-04-23 18:36 | 60.24643 | 24.75843 | 2145 ft | 175 kts | 44° |
| 2026-04-23 18:36 | 60.25457 | 24.77615 | 1909 ft | 170 kts | 44° |
| 2026-04-23 18:37 | 60.26250 | 24.79344 | 1685 ft | 166 kts | 44° |
| 2026-04-23 18:37 | 60.27010 | 24.81006 | 1452 ft | 155 kts | 44° |
| 2026-04-23 18:37 | 60.27699 | 24.82513 | 1258 ft | 139 kts | 44° |
| 2026-04-23 18:37 | 60.28335 | 24.83904 | 1057 ft | 133 kts | 45° |
| 2026-04-23 18:38 | 60.28961 | 24.85273 | 863 ft | 133 kts | 45° |
| 2026-04-23 18:38 | 60.29585 | 24.86639 | 681 ft | 132 kts | 44° |
| 2026-04-23 18:38 | 60.30208 | 24.88006 | 491 ft | 132 kts | 45° |
| 2026-04-23 18:38 | 60.30833 | 24.89366 | 318 ft | 132 kts | 45° |
| 2026-04-23 18:39 | 60.31453 | 24.90732 | 150 ft | 128 kts | 45° |
| 2026-04-23 18:39 | 60.31928 | 24.91777 | 150 ft | 96 kts | 48° |
| 2026-04-23 18:39 | 60.32266 | 24.92523 | 168 ft | 52 kts | 48° |
| 2026-04-23 18:39 | 60.32406 | 24.92892 | 173 ft | 29 kts | 65° |
| 2026-04-23 18:40 | 60.32464 | 24.93275 | 175 ft | 25 kts | 77° |
| 2026-04-23 18:40 | 60.32498 | 24.93585 | 172 ft | 18 kts | 77° |
| 2026-04-23 18:40 | 60.32524 | 24.93834 | 171 ft | 16 kts | 78° |
| 2026-04-23 18:40 | 60.32563 | 24.93974 | 170 ft | 11 kts | 46° |
| 2026-04-23 18:41 | 60.32609 | 24.94073 | 171 ft | 9 kts | 47° |
| 2026-04-23 18:41 | 60.32657 | 24.94182 | 172 ft | 15 kts | 47° |
| 2026-04-23 18:41 | 60.32744 | 24.94371 | 173 ft | 20 kts | 47° |
| 2026-04-23 18:41 | 60.32845 | 24.94592 | 174 ft | 22 kts | 47° |
| 2026-04-23 18:42 | 60.32912 | 24.94740 | 176 ft | 10 kts | 47° |
| 2026-04-23 18:42 | 60.32928 | 24.94837 | 177 ft | 7 kts | 104° |
| 2026-04-23 18:42 | 60.32863 | 24.94933 | 175 ft | 14 kts | 159° |
| 2026-04-23 18:42 | 60.32783 | 24.94986 | 177 ft | 10 kts | 162° |
| 2026-04-23 18:43 | 60.32712 | 24.95031 | 179 ft | 13 kts | 162° |
| 2026-04-23 18:43 | 60.32603 | 24.95101 | 180 ft | 20 kts | 161° |
| 2026-04-23 18:43 | 60.32458 | 24.95197 | 179 ft | 23 kts | 162° |
| 2026-04-23 18:43 | 60.32345 | 24.95274 | 177 ft | 14 kts | 156° |
| 2026-04-23 18:44 | 60.32269 | 24.95398 | 175 ft | 14 kts | 137° |
| 2026-04-23 18:44 | 60.32197 | 24.95532 | 174 ft | 14 kts | 138° |
| 2026-04-23 18:44 | 60.32124 | 24.95666 | 173 ft | 14 kts | 137° |
| 2026-04-23 18:44 | 60.32059 | 24.95786 | 174 ft | 11 kts | 137° |
| 2026-04-23 18:45 | 60.32008 | 24.95882 | 173 ft | 7 kts | 137° |
| 2026-04-23 18:45 | 60.31995 | 24.95905 | 173 ft | 0 kts | 137° |
| 2026-04-23 18:46 | 60.31977 | 24.95939 | 172 ft | 9 kts | 137° |
| 2026-04-23 18:46 | 60.31910 | 24.95922 | 170 ft | 12 kts | 230° |
| 2026-04-23 18:47 | 60.31857 | 24.95799 | 169 ft | 12 kts | 229° |
| 2026-04-23 18:47 | 60.31805 | 24.95687 | 170 ft | 10 kts | 227° |
| 2026-04-23 18:47 | 60.31755 | 24.95577 | 170 ft | 11 kts | 228° |
| 2026-04-23 18:47 | 60.31705 | 24.95468 | 171 ft | 12 kts | 227° |
| 2026-04-23 18:48 | 60.31638 | 24.95318 | 170 ft | 17 kts | 227° |
| 2026-04-23 18:48 | 60.31551 | 24.95127 | 170 ft | 20 kts | 227° |
| 2026-04-23 18:48 | 60.31481 | 24.94984 | 168 ft | 10 kts | 214° |
| 2026-04-23 18:48 | 60.31425 | 24.95021 | 167 ft | 10 kts | 132° |
| 2026-04-23 18:49 | 60.31379 | 24.95123 | 167 ft | 10 kts | 137° |
| 2026-04-23 18:49 | 60.31328 | 24.95213 | 166 ft | 11 kts | 139° |
| 2026-04-23 18:49 | 60.31274 | 24.95315 | 166 ft | 10 kts | 136° |
| 2026-04-23 18:49 | 60.31223 | 24.95410 | 166 ft | 10 kts | 137° |
| 2026-04-23 18:50 | 60.31191 | 24.95469 | 166 ft | 9 kts | 137° |
| 2026-04-23 18:50 | 60.31165 | 24.95595 | 167 ft | 7 kts | 66° |
| 2026-04-23 18:50 | 60.31195 | 24.95666 | 167 ft | 7 kts | 47° |
| 2026-04-23 18:50 | 60.31243 | 24.95773 | 167 ft | 11 kts | 47° |
| 2026-04-23 18:51 | 60.31279 | 24.95835 | 167 ft | 3 kts | 356° |
| 2026-04-23 18:51 | 60.31298 | 24.95814 | 167 ft | 3 kts | 322° |
| 2026-04-23 18:51 | 60.31311 | 24.95791 | 167 ft | 3 kts | 317° |
| 2026-04-23 18:51 | 60.31334 | 24.95747 | 167 ft | 3 kts | 317° |
| 2026-04-23 18:52 | 60.31345 | 24.95726 | 167 ft | 0 kts | 317° |